createdAt,value
2018-05-04T00:01:58.225Z,67.40
2018-05-04T00:04:26.776Z,67.40
2018-05-04T00:06:55.149Z,67.50
2018-05-04T00:09:23.525Z,67.80
2018-05-04T00:11:51.929Z,67.70
2018-05-04T00:14:20.309Z,67.90
2018-05-04T00:16:48.704Z,68.30
2018-05-04T00:19:17.090Z,68.50
2018-05-04T00:21:46.272Z,69.80
2018-05-04T00:24:14.651Z,69.00
2018-05-04T00:26:43.518Z,69.10
2018-05-04T00:29:20.873Z,69.20
2018-05-04T00:31:56.157Z,69.30
2018-05-04T00:34:32.597Z,69.20
2018-05-04T00:37:08.994Z,69.10
2018-05-04T00:39:37.869Z,68.70
2018-05-04T00:42:06.762Z,68.30
2018-05-04T00:44:35.342Z,68.50
2018-05-04T00:47:03.794Z,68.60
2018-05-04T00:49:39.122Z,68.70
2018-05-04T00:52:09.285Z,68.80
2018-05-04T00:54:38.725Z,68.70
2018-05-04T00:57:11.890Z,68.70
2018-05-04T00:59:48.442Z,68.70
2018-05-04T01:02:24.984Z,68.70
2018-05-04T01:05:00.533Z,69.20
2018-05-04T01:07:33.932Z,69.50
2018-05-04T01:10:02.945Z,69.30
2018-05-04T01:12:33.712Z,70.20
2018-05-04T01:15:10.934Z,69.30
2018-05-04T01:17:46.212Z,69.40
2018-05-04T01:20:20.296Z,69.90
2018-05-04T01:22:53.160Z,70.20
2018-05-04T01:25:27.141Z,70.40
2018-05-04T01:27:56.620Z,70.50
2018-05-04T01:30:25.017Z,70.40
2018-05-04T01:32:53.418Z,70.40
2018-05-04T01:35:21.785Z,70.70
2018-05-04T01:37:50.176Z,71.20
2018-05-04T01:40:18.560Z,70.90
2018-05-04T01:42:47.720Z,70.40
2018-05-04T01:45:16.089Z,70.40
2018-05-04T01:47:44.764Z,70.50
2018-05-04T01:50:13.136Z,70.50
2018-05-04T01:52:41.500Z,70.40
2018-05-04T01:55:09.897Z,71.10
2018-05-04T01:57:38.271Z,71.10
2018-05-04T02:00:06.682Z,70.60
2018-05-04T02:02:35.120Z,70.40
2018-05-04T02:05:03.777Z,70.60
2018-05-04T02:07:32.923Z,70.40
2018-05-04T02:10:01.329Z,70.40
2018-05-04T02:12:29.730Z,70.10
2018-05-04T02:14:58.881Z,70.20
2018-05-04T02:17:27.272Z,70.00
2018-05-04T02:19:55.648Z,69.80
2018-05-04T02:22:24.312Z,69.80
2018-05-04T02:24:52.685Z,69.50
2018-05-04T02:27:21.053Z,69.30
2018-05-04T02:29:49.449Z,69.10
2018-05-04T02:32:17.824Z,69.00
2018-05-04T02:34:46.317Z,68.80
2018-05-04T02:37:14.697Z,68.50
2018-05-04T02:39:43.372Z,68.50
2018-05-04T02:42:11.744Z,68.30
2018-05-04T02:44:40.116Z,68.20
2018-05-04T02:47:08.516Z,68.30
2018-05-04T02:49:36.926Z,68.40
2018-05-04T02:52:05.323Z,68.30
2018-05-04T02:54:34.465Z,68.50
2018-05-04T02:57:03.360Z,68.30
2018-05-04T02:59:31.736Z,68.50
2018-05-04T03:02:00.115Z,68.60
2018-05-04T03:04:28.517Z,68.40
2018-05-04T03:06:56.904Z,68.00
2018-05-04T03:09:26.067Z,68.30
2018-05-04T03:11:54.446Z,68.20
2018-05-04T03:14:22.861Z,68.50
2018-05-04T03:16:51.239Z,68.90
2018-05-04T03:19:19.620Z,69.30
2018-05-04T03:21:48.015Z,69.50
2018-05-04T03:24:17.158Z,70.30
2018-05-04T03:26:45.573Z,69.60
2018-05-04T03:29:14.824Z,69.60
2018-05-04T03:31:43.410Z,69.50
2018-05-04T03:34:11.789Z,69.30
2018-05-04T03:36:40.156Z,69.00
2018-05-04T03:39:08.554Z,68.90
2018-05-04T03:41:36.933Z,68.90
2018-05-04T03:44:05.326Z,68.90
2018-05-04T03:46:33.712Z,69.20
2018-05-04T03:49:02.145Z,69.20
2018-05-04T03:51:30.517Z,69.20
2018-05-04T03:53:58.887Z,69.30
2018-05-04T03:56:28.045Z,69.20
2018-05-04T03:59:14.864Z,69.20
2018-05-04T04:02:01.116Z,69.10
2018-05-04T04:04:29.516Z,68.90
2018-05-04T04:06:57.893Z,68.60
2018-05-04T04:09:26.299Z,68.80
2018-05-04T04:11:54.671Z,68.80
2018-05-04T04:14:23.049Z,68.40
2018-05-04T04:16:52.253Z,68.70
2018-05-04T04:19:20.636Z,68.70
2018-05-04T04:21:49.030Z,68.60
2018-05-04T04:24:18.176Z,68.20
2018-05-04T04:26:46.680Z,68.20
2018-05-04T04:29:15.062Z,67.70
2018-05-04T04:31:43.447Z,67.70
2018-05-04T04:34:11.836Z,67.90
2018-05-04T04:36:40.204Z,67.60
2018-05-04T04:39:08.610Z,67.70
2018-05-04T04:41:36.990Z,67.70
2018-05-04T04:44:05.600Z,67.90
2018-05-04T04:46:33.980Z,68.30
2018-05-04T04:49:02.351Z,68.10
2018-05-04T04:51:30.748Z,68.70
2018-05-04T04:53:59.125Z,68.20
2018-05-04T04:56:27.525Z,68.40
2018-05-04T04:58:55.901Z,68.40
2018-05-04T05:01:24.333Z,68.40
2018-05-04T05:03:52.706Z,68.60
2018-05-04T05:06:21.080Z,69.20
2018-05-04T05:08:50.240Z,68.60
2018-05-04T05:11:18.621Z,68.60
2018-05-04T05:13:47.020Z,68.40
2018-05-04T05:16:16.161Z,68.20
2018-05-04T05:18:44.948Z,68.10
2018-05-04T05:21:13.321Z,67.80
2018-05-04T05:23:41.774Z,67.50
2018-05-04T05:26:10.142Z,67.40
2018-05-04T05:28:39.295Z,65.10
2018-05-04T05:31:07.692Z,65.00
2018-05-04T05:33:36.070Z,64.10
2018-05-04T05:36:04.495Z,64.00
2018-05-04T05:38:32.875Z,63.90
2018-05-04T05:41:01.255Z,64.10
2018-05-04T05:43:29.660Z,64.10
2018-05-04T05:45:58.040Z,63.80
2018-05-04T05:48:26.445Z,63.70
2018-05-04T05:50:54.816Z,63.50
2018-05-04T05:53:23.229Z,63.20
2018-05-04T05:55:52.373Z,63.20
2018-05-04T05:58:20.761Z,63.20
2018-05-04T06:00:49.181Z,63.60
2018-05-04T06:03:18.324Z,63.90
2018-05-04T06:05:46.720Z,64.60
2018-05-04T06:08:15.102Z,63.90
2018-05-04T06:10:43.537Z,63.80
2018-05-04T06:13:11.924Z,63.80
2018-05-04T06:15:40.300Z,63.50
2018-05-04T06:18:08.699Z,63.00
2018-05-04T06:20:37.066Z,63.50
2018-05-04T06:23:05.459Z,61.50
2018-05-04T06:25:33.832Z,61.40
2018-05-04T06:28:02.240Z,61.30
2018-05-04T06:30:30.616Z,60.40
2018-05-04T06:32:59.017Z,60.20
2018-05-04T06:35:28.157Z,60.00
2018-05-04T06:37:56.732Z,60.00
2018-05-04T06:40:25.105Z,60.00
2018-05-04T06:42:53.504Z,59.50
2018-05-04T06:45:21.906Z,59.40
2018-05-04T06:47:50.285Z,59.30
2018-05-04T06:50:18.712Z,59.80
2018-05-04T06:52:47.096Z,60.20
2018-05-04T06:55:15.899Z,59.70
2018-05-04T06:57:44.277Z,59.70
2018-05-04T07:00:12.653Z,60.00
2018-05-04T07:02:41.080Z,60.30
2018-05-04T07:05:09.461Z,60.30
2018-05-04T07:07:37.867Z,59.30
2018-05-04T07:10:06.258Z,59.30
2018-05-04T07:12:34.706Z,59.20
2018-05-04T07:15:03.917Z,60.80
2018-05-04T07:17:32.313Z,60.00
2018-05-04T07:20:00.722Z,59.80
2018-05-04T07:22:29.102Z,59.80
2018-05-04T07:24:57.513Z,59.90
2018-05-04T07:27:26.667Z,59.40
2018-05-04T07:29:55.180Z,59.30
2018-05-04T07:32:23.556Z,59.30
2018-05-04T07:34:51.947Z,58.70
2018-05-04T07:37:21.127Z,58.30
2018-05-04T07:39:49.508Z,58.20
2018-05-04T07:42:18.052Z,57.70
2018-05-04T07:44:46.437Z,58.10
2018-05-04T07:47:14.822Z,57.40
2018-05-04T07:49:43.274Z,57.10
2018-05-04T07:52:11.665Z,56.30
2018-05-04T07:54:41.810Z,56.20
2018-05-04T07:57:10.185Z,55.90
2018-05-04T07:59:38.872Z,55.70
2018-05-04T08:02:07.249Z,55.50
2018-05-04T08:04:35.690Z,54.90
2018-05-04T08:07:04.172Z,54.30
2018-05-04T08:09:32.548Z,55.00
2018-05-04T08:12:00.949Z,54.50
2018-05-04T08:14:29.323Z,54.30
2018-05-04T08:16:57.912Z,54.80
2018-05-04T08:19:26.294Z,54.60
2018-05-04T08:21:54.745Z,54.60
2018-05-04T08:24:23.160Z,55.00
2018-05-04T08:26:51.544Z,55.10
2018-05-04T08:29:19.959Z,55.20
2018-05-04T08:31:49.115Z,56.10
2018-05-04T08:34:17.788Z,56.00
2018-05-04T08:36:46.169Z,56.40
2018-05-04T08:39:15.068Z,56.90
2018-05-04T08:41:43.753Z,57.70
2018-05-04T08:44:14.179Z,57.60
2018-05-04T08:46:43.252Z,57.50
2018-05-04T08:49:11.630Z,57.70
2018-05-04T08:51:40.043Z,57.50
2018-05-04T08:54:08.432Z,57.80
2018-05-04T08:56:36.861Z,58.00
2018-05-04T08:59:05.251Z,57.90
2018-05-04T09:01:33.633Z,58.80
2018-05-04T09:04:02.035Z,58.90
2018-05-04T09:06:30.404Z,58.70
2018-05-04T09:08:58.978Z,59.00
2018-05-04T09:11:27.375Z,59.10
2018-05-04T09:13:55.756Z,58.90
2018-05-04T09:16:24.157Z,58.60
2018-05-04T09:18:53.309Z,59.50
2018-05-04T09:21:21.713Z,59.50
2018-05-04T09:23:50.106Z,58.90
2018-05-04T09:26:19.360Z,59.30
2018-05-04T09:28:47.752Z,59.20
2018-05-04T09:31:16.133Z,59.30
2018-05-04T09:33:44.545Z,59.20
2018-05-04T09:36:12.918Z,59.00
2018-05-04T09:38:41.335Z,59.20
2018-05-04T09:41:09.720Z,58.70
2018-05-04T09:43:38.321Z,58.30
2018-05-04T09:46:06.728Z,58.70
2018-05-04T09:48:35.869Z,59.00
2018-05-04T09:51:04.281Z,58.90
2018-05-04T09:53:32.661Z,58.90
2018-05-04T09:56:01.114Z,58.70
2018-05-04T09:58:30.238Z,58.60
2018-05-04T10:00:58.923Z,58.50
2018-05-04T10:03:27.880Z,58.50
2018-05-04T10:05:56.284Z,58.60
2018-05-04T10:08:25.945Z,59.30
2018-05-04T10:10:55.094Z,60.20
2018-05-04T10:13:23.502Z,59.40
2018-05-04T10:15:51.880Z,59.80
2018-05-04T10:18:20.435Z,59.80
2018-05-04T10:20:48.814Z,59.30
2018-05-04T10:23:17.192Z,59.80
2018-05-04T10:25:45.586Z,59.40
2018-05-04T10:28:13.964Z,59.60
2018-05-04T10:30:42.380Z,59.60
2018-05-04T10:33:11.537Z,59.90
2018-05-04T10:35:40.117Z,59.80
2018-05-04T10:38:08.574Z,60.10
2018-05-04T10:40:36.892Z,60.10
2018-05-04T10:43:05.374Z,60.30
2018-05-04T10:45:33.752Z,60.20
2018-05-04T10:48:02.156Z,60.20
2018-05-04T10:50:31.306Z,60.00
2018-05-04T10:52:59.874Z,60.00
2018-05-04T10:55:28.253Z,59.70
2018-05-04T10:57:56.634Z,59.60
2018-05-04T11:00:25.041Z,60.00
2018-05-04T11:02:53.417Z,59.80
2018-05-04T11:05:21.816Z,59.80
2018-05-04T11:07:50.989Z,59.60
2018-05-04T11:10:20.261Z,59.50
2018-05-04T11:12:48.649Z,59.60
2018-05-04T11:15:17.030Z,60.00
2018-05-04T11:17:45.433Z,60.30
2018-05-04T11:20:13.821Z,60.30
2018-05-04T11:22:42.525Z,59.80
2018-05-04T11:25:11.691Z,59.60
2018-05-04T11:27:40.240Z,59.60
2018-05-04T11:30:08.625Z,59.40
2018-05-04T11:32:37.001Z,59.30
2018-05-04T11:35:05.480Z,59.60
2018-05-04T11:37:33.837Z,59.40
2018-05-04T11:40:02.239Z,59.20
2018-05-04T11:42:30.676Z,59.50
2018-05-04T11:45:00.005Z,59.20
2018-05-04T11:47:28.456Z,59.20
2018-05-04T11:49:57.678Z,58.90
2018-05-04T11:52:26.165Z,58.80
2018-05-04T11:54:54.586Z,57.40
2018-05-04T11:57:23.149Z,57.00
2018-05-04T11:59:51.549Z,56.80
2018-05-04T12:02:21.794Z,56.30
2018-05-04T12:04:50.224Z,56.30
2018-05-04T12:07:18.592Z,56.70
2018-05-04T12:09:46.997Z,56.30
2018-05-04T12:12:15.468Z,57.00
2018-05-04T12:14:43.877Z,56.90
2018-05-04T12:17:12.405Z,56.40
2018-05-04T12:19:41.213Z,55.70
2018-05-04T12:22:09.602Z,55.50
2018-05-04T12:24:37.989Z,54.80
2018-05-04T12:27:06.397Z,54.10
2018-05-04T12:29:35.666Z,52.20
2018-05-04T12:32:04.590Z,52.10
2018-05-04T12:34:33.431Z,53.40
2018-05-04T12:37:04.166Z,49.20
2018-05-04T12:39:32.954Z,49.20
2018-05-04T12:42:02.560Z,49.10
2018-05-04T12:44:31.409Z,49.70
2018-05-04T12:47:00.288Z,50.00
2018-05-04T12:49:29.030Z,50.50
2018-05-04T12:51:57.429Z,49.50
2018-05-04T12:54:26.961Z,48.70
2018-05-04T12:56:56.136Z,49.50
2018-05-04T12:59:24.897Z,49.40
2018-05-04T13:01:53.697Z,49.00
2018-05-04T13:04:22.634Z,49.40
2018-05-04T13:06:51.606Z,50.40
2018-05-04T13:09:20.339Z,51.60
2018-05-04T13:11:49.043Z,51.90
2018-05-04T13:14:17.996Z,52.70
2018-05-04T13:16:46.505Z,53.40
2018-05-04T13:19:15.244Z,54.00
2018-05-04T13:21:44.394Z,54.00
2018-05-04T13:24:12.808Z,54.00
2018-05-04T13:26:41.185Z,54.40
2018-05-04T13:29:09.742Z,53.80
2018-05-04T13:31:38.126Z,53.90
2018-05-04T13:34:06.505Z,53.50
2018-05-04T13:36:35.649Z,53.90
2018-05-04T13:39:04.797Z,52.00
2018-05-04T13:41:33.208Z,52.00
2018-05-04T13:44:02.349Z,52.10
2018-05-04T13:46:30.938Z,52.10
2018-05-04T13:48:59.309Z,52.60
2018-05-04T13:51:27.686Z,52.90
2018-05-04T13:53:56.097Z,53.30
2018-05-04T13:56:24.476Z,53.30
2018-05-04T13:58:52.881Z,53.10
2018-05-04T14:01:22.064Z,52.90
2018-05-04T14:03:51.275Z,53.10
2018-05-04T14:06:20.438Z,53.30
2018-05-04T14:08:48.821Z,53.30
2018-05-04T14:11:17.216Z,53.50
2018-05-04T14:13:45.589Z,53.00
2018-05-04T14:16:13.986Z,53.10
2018-05-04T14:18:43.130Z,53.00
2018-05-04T14:21:11.710Z,53.00
2018-05-04T14:23:40.080Z,51.50
2018-05-04T14:26:08.465Z,50.00
2018-05-04T14:28:36.879Z,49.90
2018-05-04T14:31:06.756Z,49.80
2018-05-04T14:33:35.160Z,49.70
2018-05-04T14:36:03.536Z,50.40
2018-05-04T14:38:31.951Z,51.10
2018-05-04T14:41:01.090Z,52.90
2018-05-04T14:43:29.456Z,52.90
2018-05-04T14:45:57.881Z,53.40
2018-05-04T14:48:26.543Z,53.20
2018-05-04T14:50:55.866Z,52.80
2018-05-04T14:53:25.675Z,52.80
2018-05-04T14:55:54.902Z,52.70
2018-05-04T14:58:24.171Z,52.30
2018-05-04T15:00:53.485Z,52.20
2018-05-04T15:03:23.125Z,52.30
2018-05-04T15:05:52.884Z,52.10
2018-05-04T15:08:22.275Z,51.50
2018-05-04T15:10:50.856Z,51.40
2018-05-04T15:13:19.267Z,51.40
2018-05-04T15:15:48.591Z,52.10
2018-05-04T15:18:18.740Z,53.00
2018-05-04T15:20:47.180Z,53.00
2018-05-04T15:23:16.947Z,53.50
2018-05-04T15:25:45.376Z,53.50
2018-05-04T15:28:13.808Z,53.30
2018-05-04T15:30:42.376Z,52.90
2018-05-04T15:33:11.664Z,52.90
2018-05-04T15:35:40.042Z,53.70
2018-05-04T15:38:08.537Z,53.90
2018-05-04T15:40:37.117Z,54.10
2018-05-04T15:43:07.261Z,53.70
2018-05-04T15:45:35.636Z,53.70
2018-05-04T15:48:10.417Z,53.50
2018-05-04T15:50:45.145Z,53.90
2018-05-04T15:53:13.778Z,53.90
2018-05-04T15:55:42.157Z,54.00
2018-05-04T15:58:10.833Z,54.30
2018-05-04T16:00:39.280Z,54.50
2018-05-04T16:03:07.660Z,54.60
2018-05-04T16:05:36.221Z,55.00
2018-05-04T16:08:05.369Z,56.00
2018-05-04T16:10:34.004Z,56.00
2018-05-04T16:13:03.329Z,55.90
2018-05-04T16:15:31.894Z,55.90
2018-05-04T16:18:00.316Z,56.10
2018-05-04T16:20:28.698Z,56.40
2018-05-04T16:22:57.105Z,56.20
2018-05-04T16:25:25.489Z,56.40
2018-05-04T16:27:54.950Z,57.20
2018-05-04T16:30:23.354Z,57.20
2018-05-04T16:32:51.745Z,57.40
2018-05-04T16:35:20.158Z,57.60
2018-05-04T16:37:48.550Z,57.50
2018-05-04T16:40:17.330Z,57.50
2018-05-04T16:42:45.735Z,57.10
2018-05-04T16:45:14.307Z,57.40
2018-05-04T16:47:48.047Z,57.50
2018-05-04T16:50:16.605Z,57.40
2018-05-04T16:52:45.148Z,57.20
2018-05-04T16:55:13.567Z,57.50
2018-05-04T16:57:41.977Z,57.70
2018-05-04T17:00:10.462Z,57.70
2018-05-04T17:02:38.860Z,57.80
2018-05-04T17:05:08.018Z,58.00
2018-05-04T17:07:36.514Z,58.00
2018-05-04T17:10:04.902Z,58.20
2018-05-04T17:12:34.091Z,57.90
2018-05-04T17:15:02.509Z,57.80
2018-05-04T17:17:30.897Z,57.70
2018-05-04T17:19:59.316Z,57.90
2018-05-04T17:22:27.707Z,58.20
2018-05-04T17:24:56.224Z,58.50
2018-05-04T17:27:24.597Z,58.60
2018-05-04T17:29:52.988Z,58.80
2018-05-04T17:32:21.409Z,59.20
2018-05-04T17:34:49.805Z,59.60
2018-05-04T17:37:18.225Z,59.50
2018-05-04T17:39:47.464Z,60.30
2018-05-04T17:42:16.132Z,60.30
2018-05-04T17:44:44.522Z,60.10
2018-05-04T17:47:12.960Z,60.50
2018-05-04T17:49:41.328Z,60.90
2018-05-04T17:52:10.484Z,61.30
2018-05-04T17:54:38.877Z,61.30
2018-05-04T17:57:07.492Z,61.30
2018-05-04T17:59:36.207Z,61.80
2018-05-04T18:02:04.602Z,62.00
2018-05-04T18:04:32.984Z,61.80
2018-05-04T18:07:01.389Z,61.80
2018-05-04T18:09:29.793Z,61.90
2018-05-04T18:11:58.194Z,62.70
2018-05-04T18:14:26.564Z,62.10
2018-05-04T18:16:54.978Z,62.10
2018-05-04T18:19:23.355Z,62.20
2018-05-04T18:21:51.769Z,62.20
2018-05-04T18:24:20.951Z,62.30
2018-05-04T18:26:50.118Z,62.40
2018-05-04T18:29:18.529Z,62.40
2018-05-04T18:31:46.916Z,62.80
2018-05-04T18:34:16.081Z,62.90
2018-05-04T18:36:44.472Z,62.80
2018-05-04T18:39:12.896Z,63.20
2018-05-04T18:41:41.350Z,63.10
2018-05-04T18:44:10.550Z,63.50
2018-05-04T18:46:39.726Z,63.80
2018-05-04T18:49:09.005Z,64.30
2018-05-04T18:51:37.445Z,63.70
2018-05-04T18:54:05.825Z,64.10
2018-05-04T18:56:34.284Z,64.10
2018-05-04T18:59:03.434Z,64.60
2018-05-04T19:01:31.824Z,64.50
2018-05-04T19:04:00.234Z,64.40
2018-05-04T19:06:28.629Z,64.70
2018-05-04T19:08:57.872Z,64.90
2018-05-04T19:11:26.268Z,64.90
2018-05-04T19:13:54.928Z,65.10
2018-05-04T19:16:23.328Z,65.30
2018-05-04T19:18:51.713Z,65.10
2018-05-04T19:21:20.429Z,65.30
2018-05-04T19:23:51.478Z,65.10
2018-05-04T19:26:20.042Z,65.00
2018-05-04T19:28:49.200Z,65.70
2018-05-04T19:31:18.540Z,65.60
2018-05-04T19:33:46.922Z,65.60
2018-05-04T19:36:16.263Z,66.10
2018-05-04T19:38:45.272Z,66.10
2018-05-04T19:41:15.797Z,66.30
2018-05-04T19:43:45.838Z,66.60
2018-05-04T19:46:14.918Z,66.70
2018-05-04T19:48:44.462Z,67.00
2018-05-04T19:51:13.562Z,67.50
2018-05-04T19:53:42.457Z,67.10
2018-05-04T19:56:11.370Z,67.20
2018-05-04T19:58:40.751Z,67.20
2018-05-04T20:01:09.588Z,67.30
2018-05-04T20:03:38.273Z,67.60
2018-05-04T20:06:06.673Z,67.40
2018-05-04T20:08:36.010Z,67.80
2018-05-04T20:11:04.665Z,67.90
2018-05-04T20:13:34.542Z,67.80
2018-05-04T20:16:03.338Z,67.60
2018-05-04T20:18:32.024Z,67.40
2018-05-04T20:21:00.608Z,67.50
2018-05-04T20:23:30.625Z,67.70
2018-05-04T20:25:59.153Z,67.90
2018-05-04T20:28:28.489Z,67.60
2018-05-04T20:30:56.897Z,67.60
2018-05-04T20:33:25.367Z,67.80
2018-05-04T20:35:53.996Z,67.80
2018-05-04T20:38:23.454Z,68.70
2018-05-04T20:40:51.981Z,68.70
2018-05-04T20:43:21.314Z,69.90
2018-05-04T20:45:49.719Z,69.10
2018-05-04T20:48:18.261Z,69.00
2018-05-04T20:50:46.665Z,69.30
2018-05-04T20:53:15.050Z,69.50
2018-05-04T20:55:43.606Z,70.00
2018-05-04T20:58:12.032Z,70.20
2018-05-04T21:00:41.953Z,70.30
2018-05-04T21:03:11.151Z,70.00
2018-05-04T21:05:40.748Z,70.20
2018-05-04T21:08:09.136Z,70.20
2018-05-04T21:10:38.445Z,70.20
2018-05-04T21:13:07.892Z,70.10
2018-05-04T21:15:37.231Z,70.10
2018-05-04T21:18:05.809Z,70.70
2018-05-04T21:20:34.230Z,71.10
2018-05-04T21:23:03.438Z,71.20
2018-05-04T21:25:31.962Z,71.10
2018-05-04T21:28:00.364Z,71.40
2018-05-04T21:30:28.783Z,71.80
2018-05-04T21:32:57.251Z,72.20
2018-05-04T21:35:25.709Z,72.10
2018-05-04T21:37:54.159Z,73.00
2018-05-04T21:40:22.834Z,71.90
2018-05-04T21:42:51.213Z,71.90
2018-05-04T21:45:19.597Z,71.80
2018-05-04T21:47:48.006Z,72.20
2018-05-04T21:50:16.388Z,72.20
2018-05-04T21:52:44.805Z,72.50
2018-05-04T21:55:13.242Z,71.80
2018-05-04T21:57:41.896Z,72.30
2018-05-04T22:00:10.297Z,72.30
2018-05-04T22:02:38.869Z,72.20
2018-05-04T22:05:07.287Z,72.50
2018-05-04T22:07:37.463Z,72.50
2018-05-04T22:10:06.085Z,72.60
2018-05-04T22:12:35.244Z,72.80
2018-05-04T22:15:04.593Z,72.80
2018-05-04T22:17:33.764Z,72.00
2018-05-04T22:20:02.164Z,71.80
2018-05-04T22:22:31.342Z,69.70
2018-05-04T22:24:59.869Z,69.60
2018-05-04T22:27:28.378Z,68.80
2018-05-04T22:29:57.501Z,68.30
2018-05-04T22:32:26.049Z,67.40
2018-05-04T22:34:54.430Z,66.90
2018-05-04T22:37:22.853Z,66.50
2018-05-04T22:39:52.033Z,66.00
2018-05-04T22:42:20.414Z,66.00
2018-05-04T22:44:48.818Z,65.90
2018-05-04T22:47:19.648Z,65.40
2018-05-04T22:49:49.109Z,65.50
2018-05-04T22:52:17.494Z,65.50
2018-05-04T22:54:45.877Z,65.60
2018-05-04T22:57:14.300Z,65.10
2018-05-04T22:59:42.716Z,64.90
2018-05-04T23:02:11.205Z,65.10
2018-05-04T23:04:39.598Z,65.20
2018-05-04T23:07:08.369Z,65.20
2018-05-04T23:09:36.749Z,65.40
2018-05-04T23:12:05.180Z,65.30
2018-05-04T23:14:34.369Z,65.00
2018-05-04T23:17:03.515Z,64.90
2018-05-04T23:19:31.903Z,64.90
2018-05-04T23:22:00.324Z,64.80
2018-05-04T23:24:29.780Z,65.70
2018-05-04T23:26:58.158Z,65.70
2018-05-04T23:29:26.600Z,65.90
2018-05-04T23:31:54.957Z,65.80
2018-05-04T23:34:23.384Z,65.50
2018-05-04T23:36:54.345Z,65.60
2018-05-04T23:39:22.729Z,65.60
2018-05-04T23:41:51.612Z,65.80
2018-05-04T23:44:20.023Z,66.10
2018-05-04T23:46:48.397Z,65.60
2018-05-04T23:49:16.805Z,65.60
2018-05-04T23:51:45.190Z,66.10
2018-05-04T23:54:13.592Z,65.10
2018-05-04T23:56:41.961Z,64.40
2018-05-04T23:59:10.652Z,64.10
